Briefing drone pour Guilherand-granges

Rechercher une autre localisation

Conditions de vol :


Nous sommes le : Mercredi 30 septembre 2020
Il est 01:49 UTC (03:49 LT)

Lever de soleil : 05:11 UTC (07:11 LT)
Coucher de soleil : 17:49 UTC (19:49 LT)

Météo

L'essentiel des conditions de vol

VIGILANCE MÉTÉO FRANCE - Ardèche (07)
Pas de vigilances particulieres
CARTE TEMSI
CARTES DES FRONTS
METAR de LFLU
LFLU 291800Z AUTO 02008KT CAVOK 16/10 Q1018

Date d'émission: 29/09/2020
Heure d'émission: 18:00 UTC
Vent: 020° pour 8 KT (15 km/h)
Visibilité horizontale: > 10 km
Plafond : Plafond et visibilité OK (CAVOK)
Température: 16 °C
Point de rosée: 10 °C
Humidité: 68%
Pression (QNH): 1018 hPa
Prévision 24h pour Valence (1 km)
Vent : 176° pour 3 KT (10 km/h)
Temperature Maxi: 13 °C
Temperature Min: 13 °C
Humidité : 71%
Condition : Partiellement nuageux



Warning: count(): Parameter must be an array or an object that implements Countable in /homepages/6/d509196549/htdocs/droneoxygene/briefing.php on line 743
WEBCAM POUR GUILHERAND-GRANGES

Réglementation

Voler en sécurité

CARTES AERONAUTIQUE 1/500.000
CARTES VAC (LFLU)
SUP AIP




Chargement des AIP...
NOTAM (GUILHERAND-GRANGES + Terrain à proximité / FIR )




Chargement des NOTAMS...
CONTACT PREFECTURE 07


Avertissement : Les données mises à disposition sont indicatives. Oxygène Drone ne pourra être tenu responsable de dégâts causés aux biens et aux personnes.